createdAt,value
2019-05-25T00:00:21.469Z,42.33
2019-05-25T00:01:02.084Z,41.94
2019-05-25T00:01:42.644Z,41.85
2019-05-25T00:02:23.177Z,42.04
2019-05-25T00:03:03.773Z,41.46
2019-05-25T00:03:44.390Z,41.27
2019-05-25T00:04:24.939Z,40.7
2019-05-25T00:05:05.487Z,40.79
2019-05-25T00:08:19.378Z,39.16
2019-05-25T00:08:59.946Z,39.35
2019-05-25T00:09:40.497Z,39.73
2019-05-25T00:10:21.067Z,40.02
2019-05-25T00:11:01.626Z,39.35
2019-05-25T00:11:42.198Z,39.04
2019-05-25T00:12:22.737Z,39.45
2019-05-25T00:13:03.328Z,39.93
2019-05-25T00:13:43.931Z,40.12
2019-05-25T00:14:24.499Z,39.73
2019-05-25T00:15:05.084Z,39.83
2019-05-25T00:15:45.872Z,40.39
2019-05-25T00:16:26.425Z,40.6
2019-05-25T00:17:07.026Z,40.58
2019-05-25T00:17:47.635Z,41.16
2019-05-25T00:18:28.219Z,41.93
2019-05-25T00:19:08.803Z,41.75
2019-05-25T00:19:49.352Z,42.21
2019-05-25T00:20:29.996Z,42.3
2019-05-25T00:21:13.619Z,42.21
2019-05-25T00:21:51.106Z,43.17
2019-05-25T00:22:31.713Z,42.6
2019-05-25T00:23:12.314Z,42.69
2019-05-25T00:23:52.890Z,43.07
2019-05-25T00:24:33.489Z,43.46
2019-05-25T00:25:14.027Z,43.36
2019-05-25T00:25:54.632Z,42.98
2019-05-25T00:26:35.254Z,43.36
2019-05-25T00:27:15.879Z,43.74
2019-05-25T00:27:56.438Z,44.13
2019-05-25T00:28:37.011Z,44.23
2019-05-25T00:29:17.582Z,44.42
2019-05-25T00:29:58.154Z,44.32
2019-05-25T00:30:38.772Z,44.42
2019-05-25T00:31:19.395Z,44.13
2019-05-25T00:31:59.938Z,44.51
2019-05-25T00:32:40.533Z,44.7
2019-05-25T00:33:21.108Z,45.28
2019-05-25T00:34:01.696Z,45.09
2019-05-25T00:34:42.244Z,45.47
2019-05-25T00:35:22.805Z,45.76
2019-05-25T00:36:03.659Z,45.76
2019-05-25T00:36:43.901Z,45.67
2019-05-25T00:37:24.476Z,45.67
2019-05-25T00:38:05.064Z,45.37
2019-05-25T00:41:19.060Z,45.57
2019-05-25T00:41:59.639Z,45.57
2019-05-25T00:42:41.047Z,45.95
2019-05-25T00:43:20.812Z,45.76
2019-05-25T00:44:01.386Z,45.67
2019-05-25T00:44:41.940Z,46.43
2019-05-25T00:45:22.491Z,46.43
2019-05-25T00:46:03.044Z,46.43
2019-05-25T00:46:43.611Z,46.43
2019-05-25T00:47:24.218Z,45.86
2019-05-25T00:48:04.797Z,45.95
2019-05-25T00:50:17.616Z,46.53
2019-05-25T00:50:58.190Z,46.14
2019-05-25T00:51:38.752Z,46.43
2019-05-25T00:52:19.313Z,45.86
2019-05-25T00:52:59.876Z,46.14
2019-05-25T00:53:40.442Z,46.34
2019-05-25T00:54:27.685Z,46.24
2019-05-25T00:55:01.590Z,46.79
2019-05-25T00:55:43.272Z,46.7
2019-05-25T00:56:23.840Z,46.91
2019-05-25T00:57:04.391Z,47.66
2019-05-25T00:57:44.978Z,47.2
2019-05-25T00:58:25.542Z,47.1
2019-05-25T00:59:06.171Z,47.1
2019-05-25T00:59:46.754Z,47.1
2019-05-25T01:00:27.302Z,46.79
2019-05-25T01:01:07.856Z,46.89
2019-05-25T01:01:48.425Z,46.91
2019-05-25T01:02:28.981Z,46.79
2019-05-25T01:03:09.554Z,46.7
2019-05-25T01:03:50.106Z,46.79
2019-05-25T01:04:30.670Z,46.41
2019-05-25T01:05:11.254Z,46.31
2019-05-25T01:05:51.809Z,46.79
2019-05-25T01:06:32.355Z,46.7
2019-05-25T01:07:12.929Z,46.41
2019-05-25T01:07:53.489Z,46.98
2019-05-25T01:08:34.057Z,46.79
2019-05-25T01:09:14.621Z,46.89
2019-05-25T01:09:55.185Z,46.6
2019-05-25T01:10:35.744Z,46.89
2019-05-25T01:11:16.315Z,46.89
2019-05-25T01:11:56.872Z,46.89
2019-05-25T01:12:37.445Z,46.98
2019-05-25T01:13:18.009Z,46.79
2019-05-25T01:13:58.577Z,47.08
2019-05-25T01:14:39.153Z,47.37
2019-05-25T01:15:19.721Z,47.46
2019-05-25T01:16:00.273Z,47.17
2019-05-25T01:16:40.834Z,47.66
2019-05-25T01:17:21.434Z,47.66
2019-05-25T01:18:02.016Z,47.34
2019-05-25T01:18:42.561Z,47.56
2019-05-25T01:19:23.126Z,47.46
2019-05-25T01:20:03.703Z,47.56
2019-05-25T01:20:44.289Z,47.56
2019-05-25T01:21:24.856Z,48.04
2019-05-25T01:22:05.422Z,48.04
2019-05-25T01:22:45.984Z,48.02
2019-05-25T01:23:26.550Z,48.59
2019-05-25T01:24:07.158Z,48.88
2019-05-25T01:24:47.723Z,48.88
2019-05-25T01:25:28.313Z,49.45
2019-05-25T01:26:08.877Z,49.48
2019-05-25T01:26:49.460Z,48.97
2019-05-25T01:27:30.020Z,49.26
2019-05-25T01:28:10.593Z,49.16
2019-05-25T01:28:51.149Z,49.36
2019-05-25T01:29:31.716Z,49.36
2019-05-25T01:30:12.296Z,49.55
2019-05-25T01:30:52.860Z,49.93
2019-05-25T01:31:33.446Z,50.12
2019-05-25T01:32:14.013Z,50.12
2019-05-25T01:32:54.577Z,50.32
2019-05-25T01:33:35.149Z,50.12
2019-05-25T01:34:15.701Z,50.41
2019-05-25T01:34:56.264Z,50.12
2019-05-25T01:35:36.859Z,50.32
2019-05-25T01:36:17.396Z,50.22
2019-05-25T01:36:57.959Z,50.51
2019-05-25T01:37:38.643Z,50.51
2019-05-25T01:38:19.091Z,50.51
2019-05-25T01:38:59.656Z,50.6
2019-05-25T01:39:40.229Z,50.7
2019-05-25T01:40:20.786Z,50.7
2019-05-25T01:41:01.349Z,50.99
2019-05-25T01:41:41.904Z,50.89
2019-05-25T01:42:22.487Z,51.18
2019-05-25T01:43:03.051Z,51.46
2019-05-25T01:43:43.665Z,51.28
2019-05-25T01:44:24.221Z,51.46
2019-05-25T01:45:04.788Z,51.37
2019-05-25T01:45:45.354Z,51.37
2019-05-25T01:46:25.897Z,51.56
2019-05-25T01:47:06.466Z,51.37
2019-05-25T01:47:47.030Z,51.56
2019-05-25T01:48:27.591Z,52.14
2019-05-25T01:49:08.157Z,52.62
2019-05-25T01:49:48.713Z,52.59
2019-05-25T01:50:29.281Z,52.81
2019-05-25T01:51:09.835Z,52.52
2019-05-25T01:51:50.388Z,52.87
2019-05-25T01:52:30.947Z,52.81
2019-05-25T01:53:11.774Z,53.07
2019-05-25T01:53:52.093Z,53.19
2019-05-25T01:54:32.675Z,53.45
2019-05-25T01:55:13.236Z,53.55
2019-05-25T01:55:53.799Z,53.28
2019-05-25T01:56:34.364Z,53.36
2019-05-25T01:57:14.929Z,53.64
2019-05-25T01:57:55.506Z,53.86
2019-05-25T01:58:36.073Z,53.67
2019-05-25T01:59:16.642Z,54.03
2019-05-25T01:59:57.218Z,53.93
2019-05-25T02:00:37.833Z,53.83
2019-05-25T02:01:18.383Z,53.93
2019-05-25T02:01:58.950Z,54.41
2019-05-25T02:02:39.573Z,54.41
2019-05-25T02:03:20.146Z,54.7
2019-05-25T02:04:00.703Z,54.5
2019-05-25T02:04:41.262Z,54.6
2019-05-25T02:05:21.816Z,54.03
2019-05-25T02:06:02.386Z,54.6
2019-05-25T02:06:42.947Z,54.7
2019-05-25T02:07:23.506Z,54.7
2019-05-25T02:08:04.087Z,54.32
2019-05-25T02:08:44.647Z,54.6
2019-05-25T02:09:25.221Z,54.7
2019-05-25T02:10:05.781Z,54.89
2019-05-25T02:10:46.337Z,54.5
2019-05-25T02:11:26.915Z,55.08
2019-05-25T02:12:07.494Z,55.27
2019-05-25T02:12:48.053Z,54.99
2019-05-25T02:13:28.611Z,55.27
2019-05-25T02:14:09.173Z,55.46
2019-05-25T02:14:49.732Z,55.08
2019-05-25T02:15:30.278Z,55.08
2019-05-25T02:16:10.842Z,55.18
2019-05-25T02:16:51.412Z,55.75
2019-05-25T02:17:31.955Z,55.27
2019-05-25T02:18:12.515Z,55.85
2019-05-25T02:18:53.065Z,55.56
2019-05-25T02:19:33.625Z,55.56
2019-05-25T02:20:14.189Z,55.65
2019-05-25T02:20:54.752Z,55.75
2019-05-25T02:21:35.321Z,56.13
2019-05-25T02:22:15.892Z,56.04
2019-05-25T02:22:56.463Z,55.94
2019-05-25T02:23:37.035Z,55.65
2019-05-25T02:24:17.601Z,55.85
2019-05-25T02:24:58.167Z,55.94
2019-05-25T02:25:38.731Z,55.85
2019-05-25T02:26:19.319Z,56.13
2019-05-25T02:26:59.901Z,56.13
2019-05-25T02:27:40.467Z,56.61
2019-05-25T02:28:21.029Z,56.42
2019-05-25T02:29:01.610Z,56.39
2019-05-25T02:29:42.164Z,56.42
2019-05-25T02:30:22.722Z,56.49
2019-05-25T02:31:03.293Z,56.1
2019-05-25T02:31:43.847Z,56.49
2019-05-25T02:32:24.413Z,56.1
2019-05-25T02:33:04.978Z,57.06
2019-05-25T02:33:45.551Z,57.35
2019-05-25T02:34:26.103Z,57.16
2019-05-25T02:35:06.655Z,57.16
2019-05-25T02:35:47.259Z,57.19
2019-05-25T02:36:27.819Z,57.26
2019-05-25T02:37:08.359Z,57.16
2019-05-25T02:37:48.929Z,56.97
2019-05-25T02:38:29.510Z,57.35
2019-05-25T02:39:10.074Z,57.54
2019-05-25T02:39:50.627Z,57.35
2019-05-25T02:40:31.182Z,57.35
2019-05-25T02:41:11.736Z,58.12
2019-05-25T02:41:52.286Z,57.92
2019-05-25T02:42:32.850Z,58.12
2019-05-25T02:43:13.395Z,58.12
2019-05-25T02:43:53.957Z,58.22
2019-05-25T02:44:34.581Z,58.22
2019-05-25T02:45:15.084Z,58.59
2019-05-25T02:45:55.645Z,58.4
2019-05-25T02:46:36.194Z,58.22
2019-05-25T02:47:16.769Z,58.69
2019-05-25T02:47:57.335Z,58.5
2019-05-25T02:48:37.894Z,58.59
2019-05-25T02:49:18.496Z,58.69
2019-05-25T02:49:59.060Z,58.79
2019-05-25T02:50:39.630Z,58.79
2019-05-25T02:51:20.179Z,59.45
2019-05-25T02:52:00.757Z,59.17
2019-05-25T02:52:41.337Z,59.17
2019-05-25T02:53:21.892Z,59.27
2019-05-25T02:54:02.456Z,59.17
2019-05-25T02:54:43.029Z,59.08
2019-05-25T02:55:33.487Z,59.17
2019-05-25T02:56:04.139Z,59.55
2019-05-25T02:56:44.721Z,59.36
2019-05-25T02:57:25.308Z,59.62
2019-05-25T02:58:05.859Z,59.84
2019-05-25T02:58:46.424Z,59.55
2019-05-25T02:59:26.979Z,59.65
2019-05-25T03:00:07.539Z,60.41
2019-05-25T03:00:48.100Z,60.41
2019-05-25T03:01:28.651Z,60.51
2019-05-25T03:02:09.208Z,60.22
2019-05-25T03:02:49.796Z,60.58
2019-05-25T03:03:30.365Z,60.48
2019-05-25T03:04:10.920Z,60.41
2019-05-25T03:04:51.489Z,60.7
2019-05-25T03:05:32.046Z,61.05
2019-05-25T03:06:12.708Z,61.05
2019-05-25T03:06:53.187Z,61.25
2019-05-25T03:07:33.724Z,61.34
2019-05-25T03:08:14.278Z,61.15
2019-05-25T03:08:54.830Z,61.72
2019-05-25T03:09:35.393Z,61.82
2019-05-25T03:10:15.954Z,61.82
2019-05-25T03:10:56.521Z,61.63
2019-05-25T03:11:37.099Z,61.63
2019-05-25T03:12:17.650Z,62.01
2019-05-25T03:12:58.205Z,61.91
2019-05-25T03:13:38.752Z,62.3
2019-05-25T03:14:19.321Z,62.2
2019-05-25T03:14:59.887Z,62.3
2019-05-25T03:15:40.447Z,62.11
2019-05-25T03:16:21.108Z,62.87
2019-05-25T03:17:01.601Z,62.4
2019-05-25T03:17:42.196Z,62.4
2019-05-25T03:18:22.757Z,62.68
2019-05-25T03:19:03.314Z,62.4
2019-05-25T03:19:43.869Z,62.4
2019-05-25T03:20:24.440Z,62.97
2019-05-25T03:21:05.021Z,63.06
2019-05-25T03:21:45.551Z,62.77
2019-05-25T03:22:26.104Z,62.4
2019-05-25T03:23:06.676Z,63.06
2019-05-25T03:23:47.229Z,62.97
2019-05-25T03:24:27.796Z,62.59
2019-05-25T03:25:08.353Z,62.59
2019-05-25T03:25:50.118Z,62.49
2019-05-25T03:26:29.488Z,63.26
2019-05-25T03:27:10.062Z,63.26
2019-05-25T03:27:50.644Z,63.16
2019-05-25T03:28:31.218Z,63.16
2019-05-25T03:29:11.768Z,63.45
2019-05-25T03:29:52.346Z,63.06
2019-05-25T03:30:32.936Z,63.06
2019-05-25T03:31:13.505Z,63.45
2019-05-25T03:31:54.070Z,63.26
2019-05-25T03:32:34.631Z,63.35
2019-05-25T03:33:15.189Z,63.32
2019-05-25T03:33:55.774Z,63.89
2019-05-25T03:34:36.340Z,63.64
2019-05-25T03:35:16.903Z,63.93
2019-05-25T03:35:57.492Z,63.83
2019-05-25T03:36:38.043Z,63.93
2019-05-25T03:37:18.599Z,64.02
2019-05-25T03:37:59.169Z,63.83
2019-05-25T03:38:39.731Z,64.02
2019-05-25T03:39:20.300Z,64.02
2019-05-25T03:40:00.879Z,64.31
2019-05-25T03:40:41.441Z,64.09
2019-05-25T03:41:22.020Z,63.64
2019-05-25T03:42:02.588Z,63.51
2019-05-25T03:42:43.150Z,64.02
2019-05-25T03:43:23.719Z,64.28
2019-05-25T03:44:04.314Z,64.09
2019-05-25T03:44:44.886Z,64.47
2019-05-25T03:45:25.445Z,64.18
2019-05-25T03:46:06.047Z,64.28
2019-05-25T03:46:46.607Z,64.37
2019-05-25T03:47:27.149Z,64.28
2019-05-25T03:48:07.763Z,64.56
2019-05-25T03:48:48.333Z,64.69
2019-05-25T03:49:28.890Z,64.79
2019-05-25T03:50:09.439Z,64.47
2019-05-25T03:50:50.025Z,64.37
2019-05-25T03:51:30.582Z,64.18
2019-05-25T03:52:11.167Z,64.56
2019-05-25T03:52:51.743Z,64.56
2019-05-25T03:53:32.321Z,64.85
2019-05-25T03:54:12.899Z,64.66
2019-05-25T03:54:53.479Z,64.75
2019-05-25T03:55:34.033Z,64.75
2019-05-25T03:56:14.590Z,64.28
2019-05-25T03:56:55.153Z,65.04
2019-05-25T03:57:35.712Z,64.75
2019-05-25T03:58:16.276Z,64.66
2019-05-25T03:58:56.825Z,64.95
2019-05-25T03:59:37.383Z,64.66
2019-05-25T04:00:17.957Z,64.75
2019-05-25T04:00:58.519Z,64.75
2019-05-25T04:01:39.077Z,64.95
2019-05-25T04:02:19.626Z,64.85
2019-05-25T04:03:00.202Z,64.85
2019-05-25T04:03:40.791Z,65.33
2019-05-25T04:04:21.383Z,65.61
2019-05-25T04:05:02.161Z,65.23
2019-05-25T04:05:42.546Z,65.23
2019-05-25T04:06:23.131Z,65.71
2019-05-25T04:07:03.721Z,66
2019-05-25T04:07:44.279Z,65.81
2019-05-25T04:08:24.845Z,66.38
2019-05-25T04:09:05.414Z,66.19
2019-05-25T04:09:46.027Z,66.09
2019-05-25T04:10:26.599Z,66.28
2019-05-25T04:11:07.166Z,66.25
2019-05-25T04:11:47.727Z,66.38
2019-05-25T04:12:28.296Z,66.28
2019-05-25T04:13:08.846Z,66
2019-05-25T04:13:49.414Z,66.44
2019-05-25T04:14:29.981Z,66.67
2019-05-25T04:15:10.550Z,66.47
2019-05-25T04:15:51.109Z,66.47
2019-05-25T04:16:31.686Z,66
2019-05-25T04:17:12.240Z,66.09
2019-05-25T04:17:52.808Z,65.9
2019-05-25T04:18:33.383Z,65.97
2019-05-25T04:19:13.934Z,66.25
2019-05-25T04:19:54.499Z,66.83
2019-05-25T04:20:35.074Z,66.35
2019-05-25T04:21:15.663Z,67.02
2019-05-25T04:21:56.234Z,67.24
2019-05-25T04:22:36.794Z,67.02
2019-05-25T04:23:17.373Z,67.21
2019-05-25T04:23:57.924Z,66.83
2019-05-25T04:24:38.547Z,67.02
2019-05-25T04:25:19.110Z,66.73
2019-05-25T04:25:59.703Z,66.76
2019-05-25T04:26:40.266Z,66.86
2019-05-25T04:27:20.839Z,66.92
2019-05-25T04:28:01.411Z,67.14
2019-05-25T04:28:41.970Z,67.14
2019-05-25T04:29:22.550Z,66.76
2019-05-25T04:30:03.113Z,66.47
2019-05-25T04:30:43.671Z,66.57
2019-05-25T04:31:24.266Z,66.47
2019-05-25T04:32:04.819Z,66.96
2019-05-25T04:32:45.410Z,66.96
2019-05-25T04:33:25.985Z,66.38
2019-05-25T04:34:06.559Z,66.38
2019-05-25T04:34:47.127Z,66.57
2019-05-25T04:35:27.745Z,66.67
2019-05-25T04:36:08.256Z,66.67
2019-05-25T04:36:48.831Z,66.47
2019-05-25T04:37:29.407Z,66.38
2019-05-25T04:38:09.970Z,66.28
2019-05-25T04:38:50.567Z,66.38
2019-05-25T04:39:31.106Z,66.67
2019-05-25T04:40:11.674Z,66.57
2019-05-25T04:40:52.234Z,66.47
2019-05-25T04:41:32.788Z,66.09
2019-05-25T04:42:13.380Z,66.67
2019-05-25T04:42:53.965Z,66.86
2019-05-25T04:43:34.523Z,66.96
2019-05-25T04:44:15.072Z,67.14
2019-05-25T04:44:55.679Z,66.47
2019-05-25T04:45:36.251Z,66.38
2019-05-25T04:46:16.830Z,66.38
2019-05-25T04:46:57.390Z,66.47
2019-05-25T04:47:37.967Z,66.76
2019-05-25T04:48:18.540Z,66.47
2019-05-25T04:48:59.107Z,66.38
2019-05-25T04:49:39.677Z,66.47
2019-05-25T04:50:20.252Z,66.86
2019-05-25T04:51:00.840Z,66.86
2019-05-25T04:51:41.566Z,66.38
2019-05-25T04:52:22.130Z,66.38
2019-05-25T04:53:02.683Z,66.67
2019-05-25T04:53:43.247Z,66.47
2019-05-25T04:54:23.798Z,66.57
2019-05-25T04:55:04.347Z,66.28
2019-05-25T04:55:44.907Z,66.38
2019-05-25T04:56:38.592Z,66
2019-05-25T04:57:06.153Z,66.38
2019-05-25T04:57:46.619Z,66.19
2019-05-25T04:58:27.201Z,66
2019-05-25T04:59:07.758Z,66.47
2019-05-25T04:59:48.317Z,66.57
2019-05-25T05:00:28.872Z,66.57
2019-05-25T05:01:09.456Z,66.19
2019-05-25T05:01:50.022Z,66.57
2019-05-25T05:02:30.609Z,66.67
2019-05-25T05:03:11.192Z,66.38
2019-05-25T05:03:51.755Z,66.47
2019-05-25T05:04:32.328Z,66.47
2019-05-25T05:05:12.893Z,66.47
2019-05-25T05:05:53.457Z,65.9
2019-05-25T05:06:34.036Z,65.9
2019-05-25T05:07:14.627Z,66
2019-05-25T05:07:55.214Z,66.47
2019-05-25T05:08:35.954Z,66
2019-05-25T05:09:16.327Z,66.28
2019-05-25T05:10:02.443Z,66.28
2019-05-25T05:10:37.424Z,65.9
2019-05-25T05:11:17.987Z,66.28
2019-05-25T05:11:58.606Z,66.19
2019-05-25T05:12:39.142Z,66.28
2019-05-25T05:13:19.703Z,66.57
2019-05-25T05:14:00.298Z,66.09
2019-05-25T05:14:40.843Z,66.28
2019-05-25T05:15:21.403Z,66
2019-05-25T05:16:01.963Z,66.19
2019-05-25T05:16:42.530Z,66.19
2019-05-25T05:17:23.100Z,66.09
2019-05-25T05:18:03.678Z,65.9
2019-05-25T05:18:44.242Z,66.57
2019-05-25T05:19:24.807Z,65.71
2019-05-25T05:20:05.361Z,65.9
2019-05-25T05:20:45.926Z,66.28
2019-05-25T05:21:26.480Z,66.19
2019-05-25T05:22:07.085Z,66.57
2019-05-25T05:22:47.650Z,66.38
2019-05-25T05:23:28.228Z,66.19
2019-05-25T05:24:08.795Z,65.9
2019-05-25T05:24:49.372Z,66.47
2019-05-25T05:25:30.020Z,66.47
2019-05-25T05:26:10.600Z,66
2019-05-25T05:26:55.583Z,66.47
2019-05-25T05:27:31.736Z,66.28
2019-05-25T05:28:12.296Z,65.9
2019-05-25T05:28:52.850Z,66.03
2019-05-25T05:29:33.422Z,66.22
2019-05-25T05:30:13.986Z,65.94
2019-05-25T05:30:54.551Z,64.98
2019-05-25T05:31:35.108Z,64.69
2019-05-25T05:32:26.934Z,64.31
2019-05-25T05:32:56.234Z,64.25
2019-05-25T05:33:36.792Z,64.53
2019-05-25T05:34:17.361Z,63.39
2019-05-25T05:34:57.940Z,63.1
2019-05-25T05:35:39.148Z,63.19
2019-05-25T05:36:19.063Z,63
2019-05-25T05:36:59.640Z,63.39
2019-05-25T05:37:40.217Z,63.29
2019-05-25T05:38:21.018Z,63.67
2019-05-25T05:39:01.558Z,63.67
2019-05-25T05:39:42.149Z,63.89
2019-05-25T05:40:22.715Z,63.99
2019-05-25T05:41:03.315Z,63.13
2019-05-25T05:41:43.872Z,62.26
2019-05-25T05:42:24.450Z,62.36
2019-05-25T05:43:05.005Z,62.36
2019-05-25T05:43:45.568Z,61.88
2019-05-25T05:44:26.163Z,61.34
2019-05-25T05:45:06.722Z,61.82
2019-05-25T05:45:47.311Z,61.34
2019-05-25T05:46:27.890Z,60.38
2019-05-25T05:47:10.502Z,60.09
2019-05-25T05:47:49.037Z,59.55
2019-05-25T05:48:29.621Z,58.39
2019-05-25T05:49:10.186Z,58.2
2019-05-25T05:49:50.760Z,58.78
2019-05-25T05:50:31.340Z,58.97
2019-05-25T05:51:11.941Z,58.69
2019-05-25T05:51:52.533Z,58.78
2019-05-25T05:52:33.056Z,58.69
2019-05-25T05:53:13.641Z,58.2
2019-05-25T05:53:54.255Z,58.62
2019-05-25T05:54:34.844Z,58.52
2019-05-25T05:55:17.367Z,58.52
2019-05-25T05:55:55.993Z,58.23
2019-05-25T05:56:36.566Z,57.37
2019-05-25T05:57:17.152Z,57.5
2019-05-25T05:57:57.736Z,56.15
2019-05-25T05:58:38.328Z,55.96
2019-05-25T05:59:18.925Z,56.05
2019-05-25T05:59:59.491Z,55.77
2019-05-25T06:00:40.069Z,56.24
2019-05-25T06:01:20.642Z,56.73
2019-05-25T06:02:01.196Z,56.53
2019-05-25T06:02:41.763Z,56.08
2019-05-25T06:03:22.378Z,55.41
2019-05-25T06:04:02.983Z,54.83
2019-05-25T06:04:43.591Z,54.55
2019-05-25T06:05:24.177Z,53.49
2019-05-25T06:06:04.750Z,54.16
2019-05-25T06:06:45.319Z,53.68
2019-05-25T06:07:27.481Z,53.58
2019-05-25T06:08:06.446Z,53.68
2019-05-25T06:08:47.012Z,53.13
2019-05-25T06:09:27.584Z,52.91
2019-05-25T06:10:08.157Z,53.32
2019-05-25T06:10:48.730Z,53.32
2019-05-25T06:11:29.319Z,53.32
2019-05-25T06:12:09.876Z,52.94
2019-05-25T06:12:50.451Z,52.75
2019-05-25T06:13:31.071Z,52.08
2019-05-25T06:14:11.656Z,52.46
2019-05-25T06:14:52.231Z,50.27
2019-05-25T06:15:32.830Z,50.15
2019-05-25T06:16:13.403Z,50.08
2019-05-25T06:16:53.971Z,49.67
2019-05-25T06:17:34.545Z,51.21
2019-05-25T06:18:15.123Z,50.34
2019-05-25T06:18:55.755Z,49.6
2019-05-25T06:19:36.321Z,48.9
2019-05-25T06:20:16.892Z,49.77
2019-05-25T06:20:57.488Z,49.67
2019-05-25T06:21:38.063Z,49.1
2019-05-25T06:22:18.648Z,49.29
2019-05-25T06:22:59.223Z,50.25
2019-05-25T06:23:39.805Z,50.54
2019-05-25T06:24:20.384Z,50.82
2019-05-25T06:25:01.004Z,52.1
2019-05-25T06:25:41.516Z,50.46
2019-05-25T06:26:22.078Z,50.08
2019-05-25T06:27:02.649Z,50.37
2019-05-25T06:27:43.492Z,48.64
2019-05-25T06:28:23.970Z,48.25
2019-05-25T06:29:04.767Z,48.16
2019-05-25T06:29:45.742Z,48.61
2019-05-25T06:30:26.295Z,49.48
2019-05-25T06:31:07.115Z,49.87
2019-05-25T06:31:47.703Z,50.34
2019-05-25T06:32:28.311Z,50.73
2019-05-25T06:33:08.941Z,50.92
2019-05-25T06:33:50.187Z,50.54
2019-05-25T06:37:04.177Z,50.9
2019-05-25T06:37:44.779Z,50.99
2019-05-25T06:38:25.389Z,51.37
2019-05-25T06:39:05.979Z,52.12
2019-05-25T06:39:46.599Z,52.12
2019-05-25T06:40:27.179Z,52.02
2019-05-25T06:41:08.681Z,52.4
2019-05-25T06:41:48.482Z,53.05
2019-05-25T06:42:29.048Z,54.49
2019-05-25T06:43:09.654Z,54.52
2019-05-25T06:43:50.281Z,54.04
2019-05-25T06:44:30.820Z,53.56
2019-05-25T06:45:11.387Z,53.36
2019-05-25T06:45:51.989Z,53.75
2019-05-25T06:46:32.565Z,54.13
2019-05-25T06:47:13.110Z,54.8
2019-05-25T06:47:53.712Z,55.67
2019-05-25T06:48:34.341Z,54.52
2019-05-25T06:49:14.985Z,53.94
2019-05-25T06:49:55.568Z,53.27
2019-05-25T06:50:37.469Z,52.98
2019-05-25T06:51:18.097Z,53.08
2019-05-25T06:51:58.701Z,53.56
2019-05-25T06:52:39.423Z,53.66
2019-05-25T06:53:20.382Z,54.23
2019-05-25T06:54:01.038Z,53.17
2019-05-25T06:56:59.983Z,54.97
2019-05-25T06:57:43.466Z,54.88
2019-05-25T06:58:21.144Z,54.3
2019-05-25T06:59:01.710Z,54.49
2019-05-25T06:59:42.369Z,55.07
2019-05-25T07:00:22.937Z,56.31
2019-05-25T07:01:03.569Z,56.24
2019-05-25T07:01:44.146Z,55.86
2019-05-25T07:02:24.710Z,54.33
2019-05-25T07:03:05.275Z,54.23
2019-05-25T07:03:45.849Z,55.1
2019-05-25T07:06:44.706Z,54.11
2019-05-25T07:07:25.283Z,54.01
2019-05-25T07:08:05.879Z,54.3
2019-05-25T07:08:46.419Z,54.78
2019-05-25T07:09:27.020Z,55.35
2019-05-25T07:10:07.591Z,55.62
2019-05-25T07:10:48.164Z,55.74
2019-05-25T07:11:28.746Z,56.57
2019-05-25T07:12:09.554Z,56.48
2019-05-25T07:12:50.151Z,57.06
2019-05-25T07:13:30.716Z,57.24
2019-05-25T07:14:11.354Z,57.24
2019-05-25T07:14:51.929Z,57.43
2019-05-25T07:15:33.498Z,57.06
2019-05-25T07:16:14.211Z,57.24
2019-05-25T07:16:54.896Z,56.67
2019-05-25T07:17:35.634Z,55.9
2019-05-25T07:18:16.187Z,56.48
2019-05-25T07:18:56.800Z,56.86
2019-05-25T07:19:37.370Z,56.96
2019-05-25T07:20:17.948Z,57.18
2019-05-25T07:20:58.510Z,57.37
2019-05-25T07:21:39.089Z,57.08
2019-05-25T07:22:19.643Z,56.7
2019-05-25T07:23:00.211Z,56.38
2019-05-25T07:23:40.796Z,57.15
2019-05-25T07:24:21.352Z,57.34
2019-05-25T07:25:01.961Z,57.92
2019-05-25T07:25:42.508Z,58.49
2019-05-25T07:26:23.125Z,58.52
2019-05-25T07:27:03.711Z,58.52
2019-05-25T07:27:58.090Z,58.42
2019-05-25T07:28:25.594Z,58.33
2019-05-25T07:29:06.332Z,58.39
2019-05-25T07:29:46.910Z,58.49
2019-05-25T07:30:27.482Z,57.82
2019-05-25T07:31:08.065Z,58.14
2019-05-25T07:31:48.649Z,58.39
2019-05-25T07:32:29.222Z,57.92
2019-05-25T07:33:09.780Z,58.14
2019-05-25T07:33:50.458Z,58.01
2019-05-25T07:34:30.953Z,57.92
2019-05-25T07:35:11.511Z,57.85
2019-05-25T07:35:52.097Z,58.04
2019-05-25T07:36:32.681Z,57.82
2019-05-25T07:37:13.255Z,58.11
2019-05-25T07:37:53.956Z,57.82
2019-05-25T07:38:34.522Z,57.92
2019-05-25T07:39:15.098Z,57.92
2019-05-25T07:39:55.667Z,57.82
2019-05-25T07:40:36.243Z,57.92
2019-05-25T07:41:16.929Z,58.39
2019-05-25T07:41:57.497Z,58.49
2019-05-25T07:42:38.071Z,58.39
2019-05-25T07:43:18.639Z,57.92
2019-05-25T07:43:59.230Z,58.01
2019-05-25T07:44:39.812Z,57.82
2019-05-25T07:45:20.404Z,57.92
2019-05-25T07:46:00.976Z,58.2
2019-05-25T07:46:41.556Z,58.2
2019-05-25T07:47:22.184Z,58.59
2019-05-25T07:48:02.864Z,58.87
2019-05-25T07:48:43.469Z,59.64
2019-05-25T07:49:24.034Z,59.55
2019-05-25T07:50:04.630Z,59.16
2019-05-25T07:50:45.174Z,59.36
2019-05-25T07:51:25.728Z,58.87
2019-05-25T07:52:06.294Z,58.91
2019-05-25T07:52:46.890Z,59.19
2019-05-25T07:53:27.448Z,58.39
2019-05-25T07:54:08.017Z,58.52
2019-05-25T07:54:48.634Z,58.23
2019-05-25T07:55:29.169Z,57.95
2019-05-25T07:56:09.732Z,58.2
2019-05-25T07:56:50.302Z,57.43
2019-05-25T07:57:30.865Z,57.24
2019-05-25T07:58:17.104Z,57.53
2019-05-25T07:58:52.025Z,56.96
2019-05-25T07:59:32.585Z,57.06
2019-05-25T08:00:13.152Z,57.06
2019-05-25T08:00:53.723Z,57.92
2019-05-25T08:01:34.300Z,58.3
2019-05-25T08:02:14.873Z,58.59
2019-05-25T08:02:55.438Z,58.78
2019-05-25T08:03:39.590Z,59.55
2019-05-25T08:04:16.608Z,59.55
2019-05-25T08:04:57.185Z,58.49
2019-05-25T08:05:37.789Z,58.3
2019-05-25T08:06:18.394Z,58.59
2019-05-25T08:06:58.953Z,58.11
2019-05-25T08:07:39.559Z,58.49
2019-05-25T08:08:20.126Z,58.46
2019-05-25T08:09:00.704Z,58.17
2019-05-25T08:09:41.264Z,58.94
2019-05-25T08:10:21.845Z,58.65
2019-05-25T08:11:02.409Z,58.94
2019-05-25T08:11:42.985Z,59.42
2019-05-25T08:12:23.588Z,59.61
2019-05-25T08:13:04.172Z,59.52
2019-05-25T08:13:44.748Z,60
2019-05-25T08:14:25.350Z,60.19
2019-05-25T08:15:05.871Z,59.9
2019-05-25T08:15:46.439Z,59.8
2019-05-25T08:16:27.041Z,60.09
2019-05-25T08:17:07.575Z,60.57
2019-05-25T08:17:48.229Z,59.9
2019-05-25T08:18:28.792Z,59.61
2019-05-25T08:19:09.552Z,59.71
2019-05-25T08:19:50.115Z,59.87
2019-05-25T08:20:30.759Z,60.73
2019-05-25T08:21:12.517Z,60.47
2019-05-25T08:21:53.034Z,61.05
2019-05-25T08:22:33.834Z,61.34
2019-05-25T08:23:15.274Z,61.31
2019-05-25T08:23:57.355Z,61.11
2019-05-25T08:24:37.564Z,61.82
2019-05-25T08:25:18.141Z,61.72
2019-05-25T08:25:58.699Z,61.91
2019-05-25T08:26:39.249Z,61.82
2019-05-25T08:27:19.817Z,61.82
2019-05-25T08:28:00.400Z,62.2
2019-05-25T08:28:40.960Z,62.39
2019-05-25T08:29:21.519Z,61.82
2019-05-25T08:30:02.087Z,62.87
2019-05-25T08:30:42.699Z,62.39
2019-05-25T08:31:23.289Z,62.1
2019-05-25T08:32:03.955Z,62.3
2019-05-25T08:32:44.542Z,61.72
2019-05-25T08:33:25.138Z,62.2
2019-05-25T08:34:05.772Z,62.2
2019-05-25T08:34:46.376Z,62.01
2019-05-25T08:35:26.947Z,61.63
2019-05-25T08:36:07.522Z,61.91
2019-05-25T08:36:48.076Z,61.34
2019-05-25T08:37:28.639Z,61.15
2019-05-25T08:38:09.194Z,61.15
2019-05-25T08:38:49.811Z,61.24
2019-05-25T08:39:30.358Z,61.24
2019-05-25T08:40:10.950Z,61.72
2019-05-25T08:40:51.691Z,61.05
2019-05-25T08:41:32.104Z,61.15
2019-05-25T08:42:12.670Z,61.15
2019-05-25T08:42:53.229Z,62.01
2019-05-25T08:43:33.782Z,61.53
2019-05-25T08:44:14.353Z,61.91
2019-05-25T08:44:54.930Z,61.91
2019-05-25T08:45:35.547Z,61.63
2019-05-25T08:46:16.119Z,61.24
2019-05-25T08:46:56.704Z,61.24
2019-05-25T08:47:37.285Z,61.63
2019-05-25T08:48:17.858Z,62.2
2019-05-25T08:48:58.415Z,61.72
2019-05-25T08:49:38.978Z,61.21
2019-05-25T08:50:19.547Z,61.72
2019-05-25T08:51:00.133Z,61.79
2019-05-25T08:51:40.736Z,61.69
2019-05-25T08:52:21.282Z,62.17
2019-05-25T08:53:01.840Z,62.46
2019-05-25T08:53:44.581Z,62.84
2019-05-25T08:54:22.978Z,63.32
2019-05-25T08:55:03.634Z,63.22
2019-05-25T08:55:44.124Z,63.22
2019-05-25T08:56:24.719Z,62.93
2019-05-25T08:57:05.274Z,62.74
2019-05-25T08:57:45.826Z,63.8
2019-05-25T08:58:26.394Z,63.42
2019-05-25T08:59:07.013Z,63.32